sensor_id;sensor_type;location;lat;lon;timestamp;P1;durP1;ratioP1;P2;durP2;ratioP2
14121;SDS011;7139;48.114;11.442;2023-02-28T00:01:39;4.90;;;3.23;;
14121;SDS011;7139;48.114;11.442;2023-02-28T00:04:06;3.60;;;3.20;;
14121;SDS011;7139;48.114;11.442;2023-02-28T00:06:34;3.20;;;2.80;;
14121;SDS011;7139;48.114;11.442;2023-02-28T00:09:01;4.10;;;3.20;;
14121;SDS011;7139;48.114;11.442;2023-02-28T00:11:27;5.00;;;3.40;;
14121;SDS011;7139;48.114;11.442;2023-02-28T00:13:54;3.90;;;3.33;;
14121;SDS011;7139;48.114;11.442;2023-02-28T00:16:22;3.90;;;3.50;;
14121;SDS011;7139;48.114;11.442;2023-02-28T00:18:49;3.67;;;3.37;;
14121;SDS011;7139;48.114;11.442;2023-02-28T00:21:16;4.63;;;3.43;;
14121;SDS011;7139;48.114;11.442;2023-02-28T00:23:44;3.63;;;3.33;;
14121;SDS011;7139;48.114;11.442;2023-02-28T00:26:11;4.80;;;3.50;;
14121;SDS011;7139;48.114;11.442;2023-02-28T00:28:38;3.37;;;3.07;;
14121;SDS011;7139;48.114;11.442;2023-02-28T00:31:05;4.93;;;4.13;;
14121;SDS011;7139;48.114;11.442;2023-02-28T00:33:33;4.37;;;3.50;;
14121;SDS011;7139;48.114;11.442;2023-02-28T00:36:06;5.33;;;3.97;;
14121;SDS011;7139;48.114;11.442;2023-02-28T00:38:35;5.53;;;3.93;;
14121;SDS011;7139;48.114;11.442;2023-02-28T00:41:02;4.07;;;3.07;;
14121;SDS011;7139;48.114;11.442;2023-02-28T00:43:30;4.63;;;3.60;;
14121;SDS011;7139;48.114;11.442;2023-02-28T00:45:57;4.83;;;3.50;;
14121;SDS011;7139;48.114;11.442;2023-02-28T00:48:24;3.90;;;3.50;;
14121;SDS011;7139;48.114;11.442;2023-02-28T00:50:52;3.93;;;3.53;;
14121;SDS011;7139;48.114;11.442;2023-02-28T00:53:19;3.93;;;3.50;;
14121;SDS011;7139;48.114;11.442;2023-02-28T00:55:48;4.57;;;3.90;;
14121;SDS011;7139;48.114;11.442;2023-02-28T00:58:15;4.40;;;3.50;;
14121;SDS011;7139;48.114;11.442;2023-02-28T01:00:41;4.80;;;3.67;;
14121;SDS011;7139;48.114;11.442;2023-02-28T01:03:08;5.07;;;3.50;;
14121;SDS011;7139;48.114;11.442;2023-02-28T01:05:35;6.53;;;4.03;;
14121;SDS011;7139;48.114;11.442;2023-02-28T01:08:03;4.13;;;3.73;;
14121;SDS011;7139;48.114;11.442;2023-02-28T01:10:31;4.87;;;3.73;;
14121;SDS011;7139;48.114;11.442;2023-02-28T01:12:58;4.93;;;4.10;;
14121;SDS011;7139;48.114;11.442;2023-02-28T01:15:24;5.87;;;4.33;;
14121;SDS011;7139;48.114;11.442;2023-02-28T01:17:51;5.17;;;4.67;;
14121;SDS011;7139;48.114;11.442;2023-02-28T01:20:18;6.37;;;3.90;;
14121;SDS011;7139;48.114;11.442;2023-02-28T01:22:45;5.17;;;4.00;;
14121;SDS011;7139;48.114;11.442;2023-02-28T01:25:13;4.40;;;4.00;;
14121;SDS011;7139;48.114;11.442;2023-02-28T01:27:40;5.80;;;4.17;;
14121;SDS011;7139;48.114;11.442;2023-02-28T01:30:07;5.80;;;3.70;;
14121;SDS011;7139;48.114;11.442;2023-02-28T01:32:35;5.37;;;3.60;;
14121;SDS011;7139;48.114;11.442;2023-02-28T01:35:01;4.67;;;4.07;;
14121;SDS011;7139;48.114;11.442;2023-02-28T01:37:28;5.20;;;3.63;;
14121;SDS011;7139;48.114;11.442;2023-02-28T01:39:55;5.13;;;3.60;;
14121;SDS011;7139;48.114;11.442;2023-02-28T01:42:23;4.97;;;3.80;;
14121;SDS011;7139;48.114;11.442;2023-02-28T01:45:00;4.47;;;3.70;;
14121;SDS011;7139;48.114;11.442;2023-02-28T01:47:30;4.70;;;3.93;;
14121;SDS011;7139;48.114;11.442;2023-02-28T01:50:01;4.33;;;3.47;;
14121;SDS011;7139;48.114;11.442;2023-02-28T01:52:30;5.13;;;4.17;;
14121;SDS011;7139;48.114;11.442;2023-02-28T01:54:59;4.83;;;4.20;;
14121;SDS011;7139;48.114;11.442;2023-02-28T01:57:30;4.40;;;4.00;;
14121;SDS011;7139;48.114;11.442;2023-02-28T02:00:04;5.97;;;4.00;;
14121;SDS011;7139;48.114;11.442;2023-02-28T02:02:34;6.10;;;3.90;;
14121;SDS011;7139;48.114;11.442;2023-02-28T02:05:03;4.10;;;3.60;;
14121;SDS011;7139;48.114;11.442;2023-02-28T02:07:32;4.47;;;3.90;;
14121;SDS011;7139;48.114;11.442;2023-02-28T02:10:01;5.00;;;3.93;;
14121;SDS011;7139;48.114;11.442;2023-02-28T02:12:36;5.07;;;4.40;;
14121;SDS011;7139;48.114;11.442;2023-02-28T02:15:19;4.63;;;4.00;;
14121;SDS011;7139;48.114;11.442;2023-02-28T02:17:52;6.77;;;4.17;;
14121;SDS011;7139;48.114;11.442;2023-02-28T02:23:39;4.63;;;3.97;;
14121;SDS011;7139;48.114;11.442;2023-02-28T02:26:31;5.17;;;3.93;;
14121;SDS011;7139;48.114;11.442;2023-02-28T02:29:23;4.97;;;3.90;;
14121;SDS011;7139;48.114;11.442;2023-02-28T02:32:27;5.67;;;3.73;;
14121;SDS011;7139;48.114;11.442;2023-02-28T02:35:07;4.90;;;4.30;;
14121;SDS011;7139;48.114;11.442;2023-02-28T02:37:40;4.20;;;3.63;;
14121;SDS011;7139;48.114;11.442;2023-02-28T02:40:14;4.63;;;3.80;;
14121;SDS011;7139;48.114;11.442;2023-02-28T02:42:45;6.47;;;4.47;;
14121;SDS011;7139;48.114;11.442;2023-02-28T02:45:18;5.13;;;4.40;;
14121;SDS011;7139;48.114;11.442;2023-02-28T02:47:49;5.00;;;4.47;;
14121;SDS011;7139;48.114;11.442;2023-02-28T02:50:19;5.53;;;4.37;;
14121;SDS011;7139;48.114;11.442;2023-02-28T02:52:51;4.53;;;4.10;;
14121;SDS011;7139;48.114;11.442;2023-02-28T02:55:22;4.63;;;3.87;;
14121;SDS011;7139;48.114;11.442;2023-02-28T02:57:50;5.03;;;4.03;;
14121;SDS011;7139;48.114;11.442;2023-02-28T03:00:20;5.73;;;4.30;;
14121;SDS011;7139;48.114;11.442;2023-02-28T03:02:50;5.37;;;4.40;;
14121;SDS011;7139;48.114;11.442;2023-02-28T03:05:23;4.63;;;4.23;;
14121;SDS011;7139;48.114;11.442;2023-02-28T03:07:52;5.10;;;4.10;;
14121;SDS011;7139;48.114;11.442;2023-02-28T03:10:25;5.83;;;4.10;;
14121;SDS011;7139;48.114;11.442;2023-02-28T03:12:57;5.47;;;4.43;;
14121;SDS011;7139;48.114;11.442;2023-02-28T03:15:34;5.93;;;4.80;;
14121;SDS011;7139;48.114;11.442;2023-02-28T03:18:10;4.97;;;4.13;;
14121;SDS011;7139;48.114;11.442;2023-02-28T03:20:48;6.20;;;4.10;;
14121;SDS011;7139;48.114;11.442;2023-02-28T03:23:26;6.60;;;4.60;;
14121;SDS011;7139;48.114;11.442;2023-02-28T03:26:02;6.43;;;4.60;;
14121;SDS011;7139;48.114;11.442;2023-02-28T03:28:34;5.50;;;4.23;;
14121;SDS011;7139;48.114;11.442;2023-02-28T03:31:10;6.07;;;4.57;;
14121;SDS011;7139;48.114;11.442;2023-02-28T03:33:42;5.37;;;4.30;;
14121;SDS011;7139;48.114;11.442;2023-02-28T03:36:21;5.57;;;4.80;;
14121;SDS011;7139;48.114;11.442;2023-02-28T03:38:53;5.13;;;4.63;;
14121;SDS011;7139;48.114;11.442;2023-02-28T03:41:27;6.30;;;4.53;;
14121;SDS011;7139;48.114;11.442;2023-02-28T03:43:59;6.13;;;4.70;;
14121;SDS011;7139;48.114;11.442;2023-02-28T03:46:33;6.03;;;4.87;;
14121;SDS011;7139;48.114;11.442;2023-02-28T03:49:03;5.43;;;4.70;;
14121;SDS011;7139;48.114;11.442;2023-02-28T03:51:36;7.03;;;5.33;;
14121;SDS011;7139;48.114;11.442;2023-02-28T03:54:08;5.70;;;4.97;;
14121;SDS011;7139;48.114;11.442;2023-02-28T03:56:39;7.53;;;5.40;;
14121;SDS011;7139;48.114;11.442;2023-02-28T03:59:10;7.67;;;5.33;;
14121;SDS011;7139;48.114;11.442;2023-02-28T04:01:41;7.27;;;5.80;;
14121;SDS011;7139;48.114;11.442;2023-02-28T04:04:10;6.10;;;5.20;;
14121;SDS011;7139;48.114;11.442;2023-02-28T04:06:39;6.47;;;5.10;;
14121;SDS011;7139;48.114;11.442;2023-02-28T04:09:07;8.70;;;5.37;;
14121;SDS011;7139;48.114;11.442;2023-02-28T04:11:36;7.40;;;5.80;;
14121;SDS011;7139;48.114;11.442;2023-02-28T04:14:04;7.57;;;6.23;;
14121;SDS011;7139;48.114;11.442;2023-02-28T04:16:32;9.77;;;5.77;;
14121;SDS011;7139;48.114;11.442;2023-02-28T04:19:00;6.47;;;5.63;;
14121;SDS011;7139;48.114;11.442;2023-02-28T04:21:28;7.63;;;6.07;;
14121;SDS011;7139;48.114;11.442;2023-02-28T04:23:56;7.20;;;6.10;;
14121;SDS011;7139;48.114;11.442;2023-02-28T04:26:25;7.60;;;6.37;;
14121;SDS011;7139;48.114;11.442;2023-02-28T04:28:54;6.53;;;5.57;;
14121;SDS011;7139;48.114;11.442;2023-02-28T04:31:21;7.67;;;6.20;;
14121;SDS011;7139;48.114;11.442;2023-02-28T04:33:48;7.23;;;6.17;;
14121;SDS011;7139;48.114;11.442;2023-02-28T04:36:15;7.10;;;6.40;;
14121;SDS011;7139;48.114;11.442;2023-02-28T04:38:43;9.50;;;6.67;;
14121;SDS011;7139;48.114;11.442;2023-02-28T04:41:11;8.73;;;6.70;;
14121;SDS011;7139;48.114;11.442;2023-02-28T04:43:39;7.70;;;6.60;;
14121;SDS011;7139;48.114;11.442;2023-02-28T04:46:06;8.37;;;6.97;;
14121;SDS011;7139;48.114;11.442;2023-02-28T04:48:33;8.00;;;6.63;;
14121;SDS011;7139;48.114;11.442;2023-02-28T04:51:01;8.80;;;6.43;;
14121;SDS011;7139;48.114;11.442;2023-02-28T04:53:29;9.53;;;7.47;;
14121;SDS011;7139;48.114;11.442;2023-02-28T04:55:56;8.67;;;7.27;;
14121;SDS011;7139;48.114;11.442;2023-02-28T04:58:24;9.37;;;7.60;;
14121;SDS011;7139;48.114;11.442;2023-02-28T05:00:51;9.43;;;8.23;;
14121;SDS011;7139;48.114;11.442;2023-02-28T05:03:19;8.77;;;7.40;;
14121;SDS011;7139;48.114;11.442;2023-02-28T05:05:47;9.50;;;8.27;;
14121;SDS011;7139;48.114;11.442;2023-02-28T05:08:14;11.00;;;8.30;;
14121;SDS011;7139;48.114;11.442;2023-02-28T05:10:41;10.73;;;8.20;;
14121;SDS011;7139;48.114;11.442;2023-02-28T05:13:09;8.70;;;7.33;;
14121;SDS011;7139;48.114;11.442;2023-02-28T05:15:38;9.33;;;7.53;;
14121;SDS011;7139;48.114;11.442;2023-02-28T05:18:05;10.60;;;8.03;;
14121;SDS011;7139;48.114;11.442;2023-02-28T05:20:34;9.27;;;8.10;;
14121;SDS011;7139;48.114;11.442;2023-02-28T05:23:00;9.03;;;8.00;;
14121;SDS011;7139;48.114;11.442;2023-02-28T05:25:28;11.27;;;8.93;;
14121;SDS011;7139;48.114;11.442;2023-02-28T05:27:55;12.23;;;8.43;;
14121;SDS011;7139;48.114;11.442;2023-02-28T05:30:22;11.70;;;9.30;;
14121;SDS011;7139;48.114;11.442;2023-02-28T05:32:51;9.83;;;8.27;;
14121;SDS011;7139;48.114;11.442;2023-02-28T05:35:17;12.90;;;8.93;;
14121;SDS011;7139;48.114;11.442;2023-02-28T05:37:44;11.77;;;9.77;;
14121;SDS011;7139;48.114;11.442;2023-02-28T05:40:11;10.87;;;9.27;;
14121;SDS011;7139;48.114;11.442;2023-02-28T05:42:38;10.50;;;9.03;;
14121;SDS011;7139;48.114;11.442;2023-02-28T05:45:06;12.43;;;9.73;;
14121;SDS011;7139;48.114;11.442;2023-02-28T05:47:33;12.60;;;10.03;;
14121;SDS011;7139;48.114;11.442;2023-02-28T05:50:01;13.30;;;10.03;;
14121;SDS011;7139;48.114;11.442;2023-02-28T05:52:28;10.77;;;9.40;;
14121;SDS011;7139;48.114;11.442;2023-02-28T05:54:55;12.13;;;10.03;;
14121;SDS011;7139;48.114;11.442;2023-02-28T05:57:22;12.67;;;9.77;;
14121;SDS011;7139;48.114;11.442;2023-02-28T05:59:50;13.30;;;10.40;;
14121;SDS011;7139;48.114;11.442;2023-02-28T06:02:17;17.43;;;9.97;;
14121;SDS011;7139;48.114;11.442;2023-02-28T06:04:44;11.67;;;10.00;;
14121;SDS011;7139;48.114;11.442;2023-02-28T06:07:12;12.67;;;10.37;;
14121;SDS011;7139;48.114;11.442;2023-02-28T06:09:40;16.50;;;10.93;;
14121;SDS011;7139;48.114;11.442;2023-02-28T06:12:07;12.70;;;9.97;;
14121;SDS011;7139;48.114;11.442;2023-02-28T06:14:35;14.60;;;11.33;;
14121;SDS011;7139;48.114;11.442;2023-02-28T06:17:02;14.17;;;10.70;;
14121;SDS011;7139;48.114;11.442;2023-02-28T06:19:29;15.20;;;11.43;;
14121;SDS011;7139;48.114;11.442;2023-02-28T06:21:56;14.37;;;11.60;;
14121;SDS011;7139;48.114;11.442;2023-02-28T06:24:26;15.07;;;11.20;;
14121;SDS011;7139;48.114;11.442;2023-02-28T06:26:53;13.70;;;11.60;;
14121;SDS011;7139;48.114;11.442;2023-02-28T06:29:20;13.40;;;11.00;;
14121;SDS011;7139;48.114;11.442;2023-02-28T06:31:47;13.70;;;11.30;;
14121;SDS011;7139;48.114;11.442;2023-02-28T06:34:16;16.37;;;12.03;;
14121;SDS011;7139;48.114;11.442;2023-02-28T06:36:43;14.63;;;11.67;;
14121;SDS011;7139;48.114;11.442;2023-02-28T06:39:10;14.40;;;12.17;;
14121;SDS011;7139;48.114;11.442;2023-02-28T06:41:38;14.30;;;11.50;;
14121;SDS011;7139;48.114;11.442;2023-02-28T06:44:05;14.27;;;11.70;;
14121;SDS011;7139;48.114;11.442;2023-02-28T06:46:39;15.43;;;11.57;;
14121;SDS011;7139;48.114;11.442;2023-02-28T06:49:06;14.40;;;11.87;;
14121;SDS011;7139;48.114;11.442;2023-02-28T06:51:34;15.67;;;11.77;;
14121;SDS011;7139;48.114;11.442;2023-02-28T06:54:02;15.47;;;12.20;;
14121;SDS011;7139;48.114;11.442;2023-02-28T06:56:29;15.00;;;12.37;;
14121;SDS011;7139;48.114;11.442;2023-02-28T06:58:57;16.60;;;12.60;;
14121;SDS011;7139;48.114;11.442;2023-02-28T07:01:24;15.40;;;12.57;;
14121;SDS011;7139;48.114;11.442;2023-02-28T07:03:52;15.43;;;11.10;;
14121;SDS011;7139;48.114;11.442;2023-02-28T07:06:20;12.40;;;11.03;;
14121;SDS011;7139;48.114;11.442;2023-02-28T07:08:49;15.17;;;11.90;;
14121;SDS011;7139;48.114;11.442;2023-02-28T07:11:16;15.07;;;11.97;;
14121;SDS011;7139;48.114;11.442;2023-02-28T07:13:43;15.60;;;11.97;;
14121;SDS011;7139;48.114;11.442;2023-02-28T07:16:12;15.00;;;11.50;;
14121;SDS011;7139;48.114;11.442;2023-02-28T07:18:39;14.33;;;11.63;;
14121;SDS011;7139;48.114;11.442;2023-02-28T07:21:07;13.50;;;11.50;;
14121;SDS011;7139;48.114;11.442;2023-02-28T07:23:35;15.60;;;11.97;;
14121;SDS011;7139;48.114;11.442;2023-02-28T07:26:03;16.03;;;12.90;;
14121;SDS011;7139;48.114;11.442;2023-02-28T07:28:31;16.23;;;12.27;;
14121;SDS011;7139;48.114;11.442;2023-02-28T07:31:02;16.27;;;11.83;;
14121;SDS011;7139;48.114;11.442;2023-02-28T07:33:31;19.00;;;12.13;;
14121;SDS011;7139;48.114;11.442;2023-02-28T07:36:02;14.27;;;11.90;;
14121;SDS011;7139;48.114;11.442;2023-02-28T07:38:30;14.50;;;12.33;;
14121;SDS011;7139;48.114;11.442;2023-02-28T07:40:59;20.70;;;12.27;;
14121;SDS011;7139;48.114;11.442;2023-02-28T07:43:26;15.27;;;11.57;;
14121;SDS011;7139;48.114;11.442;2023-02-28T07:45:53;16.27;;;12.40;;
14121;SDS011;7139;48.114;11.442;2023-02-28T07:48:19;14.77;;;11.80;;
14121;SDS011;7139;48.114;11.442;2023-02-28T07:50:54;16.57;;;13.07;;
14121;SDS011;7139;48.114;11.442;2023-02-28T07:53:21;14.07;;;11.87;;
14121;SDS011;7139;48.114;11.442;2023-02-28T07:55:48;20.30;;;12.90;;
14121;SDS011;7139;48.114;11.442;2023-02-28T07:58:15;18.03;;;12.93;;
14121;SDS011;7139;48.114;11.442;2023-02-28T08:00:41;17.17;;;13.73;;
14121;SDS011;7139;48.114;11.442;2023-02-28T08:03:08;15.63;;;12.77;;
14121;SDS011;7139;48.114;11.442;2023-02-28T08:05:38;14.43;;;12.00;;
14121;SDS011;7139;48.114;11.442;2023-02-28T08:08:06;15.83;;;11.93;;
14121;SDS011;7139;48.114;11.442;2023-02-28T08:10:33;14.43;;;12.60;;
14121;SDS011;7139;48.114;11.442;2023-02-28T08:13:00;16.97;;;12.53;;
14121;SDS011;7139;48.114;11.442;2023-02-28T08:15:27;16.13;;;12.80;;
14121;SDS011;7139;48.114;11.442;2023-02-28T08:17:54;17.77;;;13.57;;
14121;SDS011;7139;48.114;11.442;2023-02-28T08:20:21;14.57;;;12.90;;
14121;SDS011;7139;48.114;11.442;2023-02-28T08:22:48;16.47;;;12.30;;
14121;SDS011;7139;48.114;11.442;2023-02-28T08:25:16;17.10;;;12.83;;
14121;SDS011;7139;48.114;11.442;2023-02-28T08:27:43;15.87;;;12.27;;
14121;SDS011;7139;48.114;11.442;2023-02-28T08:30:11;17.33;;;12.77;;
14121;SDS011;7139;48.114;11.442;2023-02-28T08:32:39;19.40;;;13.93;;
14121;SDS011;7139;48.114;11.442;2023-02-28T08:35:06;17.57;;;12.60;;
14121;SDS011;7139;48.114;11.442;2023-02-28T08:37:35;17.30;;;12.87;;
14121;SDS011;7139;48.114;11.442;2023-02-28T08:40:02;19.90;;;13.90;;
14121;SDS011;7139;48.114;11.442;2023-02-28T08:42:31;18.13;;;13.40;;
14121;SDS011;7139;48.114;11.442;2023-02-28T08:44:58;24.07;;;13.50;;
14121;SDS011;7139;48.114;11.442;2023-02-28T08:47:25;18.23;;;13.87;;
14121;SDS011;7139;48.114;11.442;2023-02-28T08:49:51;16.53;;;13.17;;
14121;SDS011;7139;48.114;11.442;2023-02-28T08:52:18;19.33;;;13.70;;
14121;SDS011;7139;48.114;11.442;2023-02-28T08:54:45;18.13;;;12.87;;
14121;SDS011;7139;48.114;11.442;2023-02-28T08:57:12;16.60;;;13.03;;
14121;SDS011;7139;48.114;11.442;2023-02-28T08:59:40;19.60;;;14.03;;
14121;SDS011;7139;48.114;11.442;2023-02-28T09:02:08;16.17;;;13.40;;
14121;SDS011;7139;48.114;11.442;2023-02-28T09:04:35;17.27;;;13.73;;
14121;SDS011;7139;48.114;11.442;2023-02-28T09:07:01;16.13;;;13.47;;
14121;SDS011;7139;48.114;11.442;2023-02-28T09:09:28;19.53;;;13.73;;
14121;SDS011;7139;48.114;11.442;2023-02-28T09:11:55;17.40;;;13.33;;
14121;SDS011;7139;48.114;11.442;2023-02-28T09:14:22;15.70;;;13.30;;
14121;SDS011;7139;48.114;11.442;2023-02-28T09:16:50;19.10;;;14.50;;
14121;SDS011;7139;48.114;11.442;2023-02-28T09:19:17;17.00;;;13.90;;
14121;SDS011;7139;48.114;11.442;2023-02-28T09:21:44;17.87;;;13.53;;
14121;SDS011;7139;48.114;11.442;2023-02-28T09:24:10;24.20;;;14.60;;
14121;SDS011;7139;48.114;11.442;2023-02-28T09:26:40;27.53;;;14.83;;
14121;SDS011;7139;48.114;11.442;2023-02-28T09:29:07;20.03;;;13.23;;
14121;SDS011;7139;48.114;11.442;2023-02-28T09:31:33;16.97;;;13.30;;
14121;SDS011;7139;48.114;11.442;2023-02-28T09:34:01;16.37;;;13.40;;
14121;SDS011;7139;48.114;11.442;2023-02-28T09:36:30;20.07;;;13.03;;
14121;SDS011;7139;48.114;11.442;2023-02-28T09:38:58;16.10;;;12.50;;
14121;SDS011;7139;48.114;11.442;2023-02-28T09:41:25;18.80;;;13.50;;
14121;SDS011;7139;48.114;11.442;2023-02-28T09:43:56;17.93;;;13.83;;
14121;SDS011;7139;48.114;11.442;2023-02-28T09:46:27;20.50;;;14.17;;
14121;SDS011;7139;48.114;11.442;2023-02-28T09:48:57;17.83;;;13.50;;
14121;SDS011;7139;48.114;11.442;2023-02-28T09:54:17;17.40;;;13.73;;
14121;SDS011;7139;48.114;11.442;2023-02-28T09:56:45;23.37;;;14.10;;
14121;SDS011;7139;48.114;11.442;2023-02-28T09:59:22;18.57;;;13.43;;
14121;SDS011;7139;48.114;11.442;2023-02-28T10:02:00;16.83;;;13.20;;
14121;SDS011;7139;48.114;11.442;2023-02-28T10:04:36;15.90;;;12.80;;
14121;SDS011;7139;48.114;11.442;2023-02-28T10:07:14;16.27;;;13.17;;
14121;SDS011;7139;48.114;11.442;2023-02-28T10:09:49;17.43;;;14.10;;
14121;SDS011;7139;48.114;11.442;2023-02-28T10:12:19;17.17;;;14.53;;
14121;SDS011;7139;48.114;11.442;2023-02-28T10:14:47;16.87;;;14.10;;
14121;SDS011;7139;48.114;11.442;2023-02-28T10:17:18;20.33;;;14.33;;
14121;SDS011;7139;48.114;11.442;2023-02-28T10:19:50;18.90;;;14.13;;
14121;SDS011;7139;48.114;11.442;2023-02-28T10:22:25;18.07;;;14.23;;
14121;SDS011;7139;48.114;11.442;2023-02-28T10:24:58;18.80;;;13.43;;
14121;SDS011;7139;48.114;11.442;2023-02-28T10:27:29;18.47;;;14.17;;
14121;SDS011;7139;48.114;11.442;2023-02-28T10:29:58;15.33;;;13.50;;
14121;SDS011;7139;48.114;11.442;2023-02-28T10:32:26;15.50;;;13.90;;
14121;SDS011;7139;48.114;11.442;2023-02-28T10:34:57;17.37;;;14.70;;
14121;SDS011;7139;48.114;11.442;2023-02-28T10:37:28;17.97;;;13.83;;
14121;SDS011;7139;48.114;11.442;2023-02-28T10:39:56;18.47;;;13.83;;
14121;SDS011;7139;48.114;11.442;2023-02-28T10:42:24;16.90;;;13.87;;
14121;SDS011;7139;48.114;11.442;2023-02-28T10:45:05;17.83;;;13.10;;
14121;SDS011;7139;48.114;11.442;2023-02-28T10:47:40;17.53;;;13.33;;
14121;SDS011;7139;48.114;11.442;2023-02-28T10:50:35;18.67;;;14.20;;
14121;SDS011;7139;48.114;11.442;2023-02-28T10:53:13;17.30;;;13.70;;
14121;SDS011;7139;48.114;11.442;2023-02-28T10:55:57;17.97;;;14.00;;
14121;SDS011;7139;48.114;11.442;2023-02-28T10:58:26;19.73;;;13.60;;
14121;SDS011;7139;48.114;11.442;2023-02-28T11:00:54;18.13;;;13.77;;
14121;SDS011;7139;48.114;11.442;2023-02-28T11:03:23;16.27;;;13.87;;
14121;SDS011;7139;48.114;11.442;2023-02-28T11:05:54;15.07;;;12.73;;
14121;SDS011;7139;48.114;11.442;2023-02-28T11:08:23;19.20;;;13.53;;
14121;SDS011;7139;48.114;11.442;2023-02-28T11:10:53;19.67;;;12.67;;
14121;SDS011;7139;48.114;11.442;2023-02-28T11:13:24;18.27;;;13.00;;
14121;SDS011;7139;48.114;11.442;2023-02-28T11:15:53;17.57;;;13.87;;
14121;SDS011;7139;48.114;11.442;2023-02-28T11:18:23;17.40;;;13.53;;
14121;SDS011;7139;48.114;11.442;2023-02-28T11:20:54;16.00;;;13.90;;
14121;SDS011;7139;48.114;11.442;2023-02-28T11:23:25;17.40;;;13.20;;
14121;SDS011;7139;48.114;11.442;2023-02-28T11:25:56;16.17;;;12.67;;
14121;SDS011;7139;48.114;11.442;2023-02-28T11:28:27;19.90;;;13.10;;
14121;SDS011;7139;48.114;11.442;2023-02-28T11:31:03;19.97;;;13.47;;
14121;SDS011;7139;48.114;11.442;2023-02-28T11:33:37;14.83;;;13.20;;
14121;SDS011;7139;48.114;11.442;2023-02-28T11:36:09;15.83;;;12.70;;
14121;SDS011;7139;48.114;11.442;2023-02-28T11:38:39;15.07;;;12.60;;
14121;SDS011;7139;48.114;11.442;2023-02-28T11:41:10;13.93;;;12.37;;
14121;SDS011;7139;48.114;11.442;2023-02-28T11:43:55;15.43;;;12.43;;
14121;SDS011;7139;48.114;11.442;2023-02-28T11:46:46;16.03;;;13.10;;
14121;SDS011;7139;48.114;11.442;2023-02-28T11:49:22;16.13;;;13.27;;
14121;SDS011;7139;48.114;11.442;2023-02-28T11:51:59;15.60;;;13.13;;
14121;SDS011;7139;48.114;11.442;2023-02-28T11:54:41;13.90;;;11.97;;
14121;SDS011;7139;48.114;11.442;2023-02-28T11:57:24;19.57;;;13.03;;
14121;SDS011;7139;48.114;11.442;2023-02-28T12:00:03;17.90;;;13.47;;
14121;SDS011;7139;48.114;11.442;2023-02-28T12:02:46;15.00;;;13.27;;
14121;SDS011;7139;48.114;11.442;2023-02-28T12:05:24;17.40;;;13.63;;
14121;SDS011;7139;48.114;11.442;2023-02-28T12:07:58;15.53;;;12.57;;
14121;SDS011;7139;48.114;11.442;2023-02-28T12:10:41;15.57;;;12.90;;
14121;SDS011;7139;48.114;11.442;2023-02-28T12:13:16;17.23;;;12.70;;
14121;SDS011;7139;48.114;11.442;2023-02-28T12:15:53;15.97;;;12.47;;
14121;SDS011;7139;48.114;11.442;2023-02-28T12:18:38;14.83;;;12.63;;
14121;SDS011;7139;48.114;11.442;2023-02-28T12:21:20;14.67;;;13.07;;
14121;SDS011;7139;48.114;11.442;2023-02-28T12:23:57;13.93;;;12.53;;
14121;SDS011;7139;48.114;11.442;2023-02-28T12:26:36;17.80;;;12.63;;
14121;SDS011;7139;48.114;11.442;2023-02-28T12:29:09;15.93;;;13.17;;
14121;SDS011;7139;48.114;11.442;2023-02-28T12:31:41;17.13;;;12.73;;
14121;SDS011;7139;48.114;11.442;2023-02-28T12:34:13;14.77;;;12.67;;
14121;SDS011;7139;48.114;11.442;2023-02-28T12:36:45;16.43;;;13.13;;
14121;SDS011;7139;48.114;11.442;2023-02-28T12:39:15;14.73;;;12.53;;
14121;SDS011;7139;48.114;11.442;2023-02-28T12:41:47;15.13;;;12.80;;
14121;SDS011;7139;48.114;11.442;2023-02-28T12:44:19;14.60;;;11.97;;
14121;SDS011;7139;48.114;11.442;2023-02-28T12:46:54;12.67;;;11.40;;
14121;SDS011;7139;48.114;11.442;2023-02-28T12:49:25;15.60;;;12.10;;
14121;SDS011;7139;48.114;11.442;2023-02-28T12:51:57;17.37;;;11.83;;
14121;SDS011;7139;48.114;11.442;2023-02-28T12:54:28;11.83;;;10.63;;
14121;SDS011;7139;48.114;11.442;2023-02-28T12:57:01;13.80;;;12.27;;
14121;SDS011;7139;48.114;11.442;2023-02-28T12:59:35;12.67;;;11.37;;
14121;SDS011;7139;48.114;11.442;2023-02-28T13:05:18;19.37;;;12.60;;
14121;SDS011;7139;48.114;11.442;2023-02-28T13:11:23;14.17;;;11.10;;
14121;SDS011;7139;48.114;11.442;2023-02-28T13:13:58;12.80;;;11.23;;
14121;SDS011;7139;48.114;11.442;2023-02-28T13:16:27;13.90;;;12.43;;
14121;SDS011;7139;48.114;11.442;2023-02-28T13:19:16;14.60;;;11.30;;
14121;SDS011;7139;48.114;11.442;2023-02-28T13:21:46;13.80;;;11.53;;
14121;SDS011;7139;48.114;11.442;2023-02-28T13:24:35;13.17;;;11.77;;
14121;SDS011;7139;48.114;11.442;2023-02-28T13:30:02;14.10;;;11.60;;
14121;SDS011;7139;48.114;11.442;2023-02-28T13:33:25;14.63;;;12.00;;
14121;SDS011;7139;48.114;11.442;2023-02-28T13:38:52;12.93;;;11.73;;
14121;SDS011;7139;48.114;11.442;2023-02-28T13:44:18;14.43;;;11.60;;
14121;SDS011;7139;48.114;11.442;2023-02-28T13:49:46;16.13;;;11.67;;
14121;SDS011;7139;48.114;11.442;2023-02-28T13:52:15;13.60;;;11.33;;
14121;SDS011;7139;48.114;11.442;2023-02-28T13:54:50;16.30;;;11.67;;
14121;SDS011;7139;48.114;11.442;2023-02-28T13:57:26;12.27;;;10.97;;
14121;SDS011;7139;48.114;11.442;2023-02-28T14:00:05;15.10;;;11.50;;
14121;SDS011;7139;48.114;11.442;2023-02-28T14:02:50;12.13;;;10.93;;
14121;SDS011;7139;48.114;11.442;2023-02-28T14:05:35;14.87;;;12.10;;
14121;SDS011;7139;48.114;11.442;2023-02-28T14:08:04;14.10;;;11.77;;
14121;SDS011;7139;48.114;11.442;2023-02-28T14:10:42;19.93;;;11.83;;
14121;SDS011;7139;48.114;11.442;2023-02-28T14:13:12;14.33;;;11.73;;
14121;SDS011;7139;48.114;11.442;2023-02-28T14:15:58;13.23;;;11.93;;
14121;SDS011;7139;48.114;11.442;2023-02-28T14:18:28;16.30;;;11.07;;
14121;SDS011;7139;48.114;11.442;2023-02-28T14:21:01;15.17;;;11.53;;
14121;SDS011;7139;48.114;11.442;2023-02-28T14:23:46;15.50;;;12.20;;
14121;SDS011;7139;48.114;11.442;2023-02-28T14:26:35;14.67;;;11.57;;
14121;SDS011;7139;48.114;11.442;2023-02-28T14:29:19;13.17;;;11.27;;
14121;SDS011;7139;48.114;11.442;2023-02-28T14:32:02;13.43;;;11.37;;
14121;SDS011;7139;48.114;11.442;2023-02-28T14:34:37;13.53;;;11.07;;
14121;SDS011;7139;48.114;11.442;2023-02-28T14:37:10;13.53;;;12.13;;
14121;SDS011;7139;48.114;11.442;2023-02-28T14:39:42;14.10;;;10.90;;
14121;SDS011;7139;48.114;11.442;2023-02-28T14:44:53;12.63;;;11.27;;
14121;SDS011;7139;48.114;11.442;2023-02-28T14:47:21;12.53;;;11.10;;
14121;SDS011;7139;48.114;11.442;2023-02-28T14:49:52;14.73;;;11.80;;
14121;SDS011;7139;48.114;11.442;2023-02-28T14:52:22;15.20;;;11.23;;
14121;SDS011;7139;48.114;11.442;2023-02-28T14:54:52;15.03;;;10.77;;
14121;SDS011;7139;48.114;11.442;2023-02-28T14:57:22;29.07;;;13.07;;
14121;SDS011;7139;48.114;11.442;2023-02-28T14:59:57;16.63;;;11.50;;
14121;SDS011;7139;48.114;11.442;2023-02-28T15:02:29;14.63;;;11.17;;
14121;SDS011;7139;48.114;11.442;2023-02-28T15:05:02;15.10;;;10.90;;
14121;SDS011;7139;48.114;11.442;2023-02-28T15:07:47;15.37;;;11.20;;
14121;SDS011;7139;48.114;11.442;2023-02-28T15:10:19;11.90;;;9.70;;
14121;SDS011;7139;48.114;11.442;2023-02-28T15:12:51;11.73;;;10.53;;
14121;SDS011;7139;48.114;11.442;2023-02-28T15:15:21;12.20;;;10.97;;
14121;SDS011;7139;48.114;11.442;2023-02-28T15:17:50;14.17;;;10.57;;
14121;SDS011;7139;48.114;11.442;2023-02-28T15:20:20;12.87;;;10.83;;